createdAt,value
2022-09-12T00:01:40.456Z,14.80
2022-09-12T00:04:07.173Z,14.77
2022-09-12T00:06:36.113Z,14.66
2022-09-12T00:09:06.528Z,14.63
2022-09-12T00:11:37.004Z,14.61
2022-09-12T00:14:04.693Z,14.36
2022-09-12T00:16:33.873Z,14.46
2022-09-12T00:19:01.380Z,14.55
2022-09-12T00:21:28.539Z,14.60
2022-09-12T00:23:55.246Z,14.53
2022-09-12T00:26:22.107Z,14.46
2022-09-12T00:28:49.056Z,14.44
2022-09-12T00:31:18.228Z,14.47
2022-09-12T00:33:45.219Z,14.38
2022-09-12T00:36:14.898Z,14.29
2022-09-12T00:38:43.077Z,14.48
2022-09-12T00:41:22.956Z,14.70
2022-09-12T00:43:52.396Z,14.79
2022-09-12T00:46:37.439Z,14.79
2022-09-12T00:49:19.522Z,14.93
2022-09-12T00:51:50.498Z,14.93
2022-09-12T00:54:20.962Z,14.88
2022-09-12T00:56:54.693Z,14.82
2022-09-12T00:59:31.765Z,14.82
2022-09-12T01:01:58.663Z,14.87
2022-09-12T01:04:26.439Z,14.82
2022-09-12T01:06:54.322Z,14.83
2022-09-12T01:09:21.954Z,14.95
2022-09-12T01:11:49.841Z,14.87
2022-09-12T01:14:17.652Z,14.75
2022-09-12T01:16:45.187Z,14.64
2022-09-12T01:19:38.572Z,14.37
2022-09-12T01:22:23.208Z,14.57
2022-09-12T01:25:15.277Z,14.65
2022-09-12T01:27:44.105Z,14.56
2022-09-12T01:30:43.300Z,14.68
2022-09-12T01:33:21.234Z,14.63
2022-09-12T01:36:24.209Z,14.53
2022-09-12T01:39:15.139Z,14.56
2022-09-12T01:42:16.583Z,14.52
2022-09-12T01:44:52.240Z,14.60
2022-09-12T01:47:22.459Z,14.60
2022-09-12T01:50:11.271Z,14.66
2022-09-12T01:52:52.607Z,14.67
2022-09-12T01:55:34.067Z,14.76
2022-09-12T01:58:10.155Z,14.64
2022-09-12T02:00:44.310Z,14.66
2022-09-12T02:03:14.791Z,14.74
2022-09-12T02:06:01.526Z,14.72
2022-09-12T02:08:51.372Z,14.80
2022-09-12T02:11:18.320Z,14.70
2022-09-12T02:13:49.560Z,14.82
2022-09-12T02:16:30.813Z,14.83
2022-09-12T02:19:07.983Z,14.83
2022-09-12T02:21:36.805Z,14.85
2022-09-12T02:24:05.030Z,14.85
2022-09-12T02:26:35.446Z,14.79
2022-09-12T02:29:03.603Z,14.69
2022-09-12T02:31:46.691Z,14.55
2022-09-12T02:34:31.012Z,14.65
2022-09-12T02:37:01.483Z,14.61
2022-09-12T02:39:28.182Z,14.61
2022-09-12T02:41:55.933Z,14.55
2022-09-12T02:44:24.704Z,14.49
2022-09-12T02:46:54.925Z,14.36
2022-09-12T02:49:22.263Z,14.22
2022-09-12T02:51:49.195Z,14.19
2022-09-12T02:54:17.268Z,14.29
2022-09-12T02:56:45.347Z,13.95
2022-09-12T02:59:15.634Z,13.90
2022-09-12T03:02:04.456Z,13.86
2022-09-12T03:04:53.989Z,13.84
2022-09-12T03:07:23.422Z,13.92
2022-09-12T03:10:15.740Z,13.90
2022-09-12T03:13:03.965Z,13.85
2022-09-12T03:15:52.210Z,13.87
2022-09-12T03:18:52.021Z,13.77
2022-09-12T03:21:39.757Z,13.65
2022-09-12T03:24:19.372Z,13.80
2022-09-12T03:27:09.427Z,13.79
2022-09-12T03:29:38.506Z,13.80
2022-09-12T03:32:05.136Z,13.76
2022-09-12T03:34:32.124Z,13.82
2022-09-12T03:36:59.458Z,13.62
2022-09-12T03:39:26.910Z,13.67
2022-09-12T03:41:54.808Z,13.57
2022-09-12T03:44:21.262Z,13.61
2022-09-12T03:46:47.826Z,13.64
2022-09-12T03:49:14.355Z,13.65
2022-09-12T03:51:41.261Z,13.53
2022-09-12T03:54:07.938Z,13.58
2022-09-12T03:56:35.358Z,13.63
2022-09-12T03:59:05.528Z,13.40
2022-09-12T04:01:32.183Z,13.57
2022-09-12T04:03:58.833Z,13.60
2022-09-12T04:06:25.420Z,13.42
2022-09-12T04:08:53.415Z,13.05
2022-09-12T04:11:21.884Z,13.38
2022-09-12T04:13:48.571Z,13.52
2022-09-12T04:16:16.596Z,13.48
2022-09-12T04:18:43.663Z,13.36
2022-09-12T04:21:12.963Z,13.30
2022-09-12T04:23:39.508Z,13.23
2022-09-12T04:26:09.097Z,13.00
2022-09-12T04:28:37.603Z,13.07
2022-09-12T04:31:07.527Z,13.03
2022-09-12T04:33:35.237Z,12.92
2022-09-12T04:36:10.683Z,12.88
2022-09-12T04:38:37.909Z,12.75
2022-09-12T04:41:15.155Z,12.82
2022-09-12T04:43:43.140Z,12.89
2022-09-12T04:46:11.450Z,12.98
2022-09-12T04:48:37.969Z,12.94
2022-09-12T04:51:30.978Z,12.96
2022-09-12T04:54:03.090Z,13.05
2022-09-12T04:56:30.772Z,13.05
2022-09-12T04:58:58.730Z,13.10
2022-09-12T05:01:26.248Z,13.18
2022-09-12T05:03:52.917Z,13.07
2022-09-12T05:06:25.454Z,13.05
2022-09-12T05:08:52.872Z,13.01
2022-09-12T05:11:25.451Z,12.94
2022-09-12T05:13:54.921Z,13.04
2022-09-12T05:16:22.698Z,13.20
2022-09-12T05:18:50.230Z,13.19
2022-09-12T05:21:23.126Z,13.08
2022-09-12T05:23:57.476Z,13.09
2022-09-12T05:26:24.090Z,12.97
2022-09-12T05:28:51.805Z,12.73
2022-09-12T05:31:23.786Z,12.96
2022-09-12T05:33:51.844Z,12.99
2022-09-12T05:36:21.502Z,13.24
2022-09-12T05:38:48.289Z,13.16
2022-09-12T05:41:24.242Z,13.34
2022-09-12T05:44:00.069Z,13.24
2022-09-12T05:46:28.570Z,13.38
2022-09-12T05:48:56.791Z,13.42
2022-09-12T05:51:28.481Z,13.67
2022-09-12T05:53:59.949Z,13.71
2022-09-12T05:56:28.737Z,13.85
2022-09-12T05:58:59.019Z,13.86
2022-09-12T06:01:27.111Z,13.78
2022-09-12T06:03:55.990Z,13.88
2022-09-12T06:06:24.416Z,14.07
2022-09-12T06:08:53.542Z,14.03
2022-09-12T06:11:23.098Z,14.04
2022-09-12T06:13:51.019Z,13.60
2022-09-12T06:16:18.395Z,13.86
2022-09-12T06:18:49.659Z,13.63
2022-09-12T06:21:16.479Z,13.52
2022-09-12T06:23:43.160Z,13.72
2022-09-12T06:26:10.809Z,13.75
2022-09-12T06:28:39.923Z,13.54
2022-09-12T06:31:11.816Z,13.66
2022-09-12T06:33:42.033Z,13.78
2022-09-12T06:36:12.633Z,13.88
2022-09-12T06:38:40.391Z,13.85
2022-09-12T06:41:09.726Z,13.80
2022-09-12T06:43:37.010Z,13.81
2022-09-12T06:46:03.823Z,13.76
2022-09-12T06:48:31.144Z,14.13
2022-09-12T06:51:02.362Z,14.40
2022-09-12T06:53:30.272Z,14.02
2022-09-12T06:55:57.864Z,13.88
2022-09-12T06:58:25.591Z,13.83
2022-09-12T07:00:55.998Z,14.12
2022-09-12T07:03:25.105Z,14.22
2022-09-12T07:05:51.608Z,14.17
2022-09-12T07:08:18.273Z,14.28
2022-09-12T07:10:45.497Z,14.34
2022-09-12T07:13:12.234Z,14.47
2022-09-12T07:15:38.873Z,14.95
2022-09-12T07:18:05.623Z,15.31
2022-09-12T07:20:35.748Z,15.30
2022-09-12T07:23:02.769Z,15.69
2022-09-12T07:25:29.366Z,15.82
2022-09-12T07:27:55.901Z,15.95
2022-09-12T07:30:23.123Z,16.01
2022-09-12T07:32:54.027Z,16.27
2022-09-12T07:35:21.332Z,16.04
2022-09-12T07:37:48.022Z,16.17
2022-09-12T07:40:14.683Z,16.54
2022-09-12T07:42:41.280Z,16.42
2022-09-12T07:45:08.188Z,16.60
2022-09-12T07:47:35.268Z,16.63
2022-09-12T07:50:02.354Z,17.09
2022-09-12T07:52:29.451Z,16.99
2022-09-12T07:54:55.981Z,17.29
2022-09-12T07:57:22.539Z,17.43
2022-09-12T07:59:52.849Z,17.61
2022-09-12T08:02:20.340Z,17.83
2022-09-12T08:04:48.006Z,17.91
2022-09-12T08:07:14.867Z,18.07
2022-09-12T08:09:41.450Z,17.91
2022-09-12T08:12:08.011Z,17.88
2022-09-12T08:14:34.552Z,18.43
2022-09-12T08:17:01.127Z,18.46
2022-09-12T08:19:27.751Z,18.57
2022-09-12T08:21:54.289Z,18.43
2022-09-12T08:24:20.783Z,18.59
2022-09-12T08:26:47.611Z,18.87
2022-09-12T08:29:14.515Z,19.14
2022-09-12T08:31:42.469Z,19.69
2022-09-12T08:34:09.421Z,19.94
2022-09-12T08:36:36.334Z,20.15
2022-09-12T08:39:06.527Z,20.39
2022-09-12T08:41:39.984Z,20.49
2022-09-12T08:44:28.481Z,20.40
2022-09-12T08:47:15.630Z,20.64
2022-09-12T08:49:51.463Z,21.07
2022-09-12T08:52:26.501Z,20.91
2022-09-12T08:54:56.309Z,20.88
2022-09-12T08:57:24.276Z,20.89
2022-09-12T08:59:51.414Z,21.31
2022-09-12T09:02:31.137Z,21.34
2022-09-12T09:05:35.292Z,21.62
2022-09-12T09:08:17.281Z,21.29
2022-09-12T09:10:54.943Z,21.53
2022-09-12T09:14:17.215Z,21.75
2022-09-12T09:16:44.964Z,21.60
2022-09-12T09:19:17.456Z,21.67
2022-09-12T09:21:49.971Z,21.92
2022-09-12T09:24:19.672Z,22.06
2022-09-12T09:26:53.479Z,22.11
2022-09-12T09:29:30.271Z,22.39
2022-09-12T09:31:58.769Z,21.79
2022-09-12T09:34:29.935Z,22.36
2022-09-12T09:37:21.233Z,22.47
2022-09-12T09:40:00.029Z,22.64
2022-09-12T09:42:43.852Z,22.17
2022-09-12T09:45:16.300Z,21.99
2022-09-12T09:47:48.965Z,22.04
2022-09-12T09:50:19.346Z,22.09
2022-09-12T09:52:47.552Z,22.22
2022-09-12T09:55:22.014Z,22.49
2022-09-12T09:57:49.929Z,22.74
2022-09-12T10:00:35.686Z,22.72
2022-09-12T10:03:22.166Z,22.69
2022-09-12T10:05:59.946Z,22.75
2022-09-12T10:08:35.212Z,22.47
2022-09-12T10:11:17.015Z,22.88
2022-09-12T10:13:56.854Z,23.18
2022-09-12T10:16:28.389Z,23.16
2022-09-12T10:18:56.867Z,23.29
2022-09-12T10:21:34.271Z,23.27
2022-09-12T10:24:24.407Z,23.52
2022-09-12T10:27:05.967Z,23.63
2022-09-12T10:29:36.176Z,23.47
2022-09-12T10:32:06.617Z,23.43
2022-09-12T10:34:39.914Z,23.49
2022-09-12T10:37:08.964Z,23.75
2022-09-12T10:39:38.486Z,23.46
2022-09-12T10:42:05.703Z,23.81
2022-09-12T10:44:34.115Z,23.81
2022-09-12T10:47:19.899Z,23.69
2022-09-12T10:49:46.554Z,23.98
2022-09-12T10:52:28.448Z,23.87
2022-09-12T10:54:55.090Z,23.90
2022-09-12T10:57:38.472Z,23.83
2022-09-12T11:00:19.798Z,23.68
2022-09-12T11:03:22.095Z,23.99
2022-09-12T11:05:58.422Z,24.28
2022-09-12T11:09:04.456Z,24.46
2022-09-12T11:12:02.454Z,24.70
2022-09-12T11:14:31.953Z,24.78
2022-09-12T11:17:19.810Z,24.82
2022-09-12T11:19:53.310Z,24.53
2022-09-12T11:23:00.349Z,24.65
2022-09-12T11:25:48.132Z,24.74
2022-09-12T11:28:25.965Z,24.58
2022-09-12T11:31:08.692Z,24.56
2022-09-12T11:33:43.243Z,24.47
2022-09-12T11:36:35.672Z,24.36
2022-09-12T11:39:15.870Z,24.52
2022-09-12T11:41:49.495Z,24.22
2022-09-12T11:44:24.749Z,24.31
2022-09-12T11:46:52.234Z,24.44
2022-09-12T11:49:24.271Z,24.51
2022-09-12T11:52:01.863Z,24.28
2022-09-12T11:54:31.303Z,24.02
2022-09-12T11:57:16.883Z,24.25
2022-09-12T11:59:48.014Z,24.41
2022-09-12T12:02:25.924Z,24.45
2022-09-12T12:05:39.222Z,24.53
2022-09-12T12:08:06.762Z,24.47
2022-09-12T12:10:38.777Z,24.68
2022-09-12T12:13:13.816Z,24.66
2022-09-12T12:15:46.807Z,24.70
2022-09-12T12:18:24.688Z,24.40
2022-09-12T12:20:52.049Z,24.60
2022-09-12T12:23:34.859Z,24.17
2022-09-12T12:26:02.910Z,24.71
2022-09-12T12:28:41.750Z,24.69
2022-09-12T12:31:09.963Z,24.58
2022-09-12T12:33:39.554Z,24.53
2022-09-12T12:36:09.751Z,24.57
2022-09-12T12:38:38.258Z,24.75
2022-09-12T12:41:16.976Z,24.82
2022-09-12T12:43:45.278Z,24.80
2022-09-12T12:46:14.192Z,24.66
2022-09-12T12:49:05.985Z,24.54
2022-09-12T12:52:01.481Z,24.73
2022-09-12T12:54:40.313Z,24.47
2022-09-12T12:57:19.672Z,24.72
2022-09-12T12:59:52.428Z,24.67
2022-09-12T13:02:27.387Z,24.87
2022-09-12T13:04:55.356Z,24.89
2022-09-12T13:07:26.677Z,24.86
2022-09-12T13:09:54.582Z,24.90
2022-09-12T13:12:24.907Z,24.70
2022-09-12T13:14:59.447Z,24.92
2022-09-12T13:17:30.698Z,24.77
2022-09-12T13:20:28.010Z,24.83
2022-09-12T13:22:55.268Z,24.96
2022-09-12T13:25:32.501Z,24.76
2022-09-12T13:28:18.551Z,24.66
2022-09-12T13:30:56.033Z,24.86
2022-09-12T13:33:37.571Z,24.65
2022-09-12T13:36:14.231Z,24.83
2022-09-12T13:39:05.729Z,25.04
2022-09-12T13:42:05.075Z,25.06
2022-09-12T13:44:43.512Z,24.67
2022-09-12T13:47:14.706Z,24.92
2022-09-12T13:49:41.798Z,24.91
2022-09-12T13:52:14.654Z,25.07
2022-09-12T13:54:44.848Z,25.10
2022-09-12T13:57:29.351Z,24.96
2022-09-12T13:59:57.624Z,25.14
2022-09-12T14:02:27.745Z,24.87
2022-09-12T14:05:09.233Z,25.04
2022-09-12T14:07:59.814Z,24.88
2022-09-12T14:10:38.130Z,25.04
2022-09-12T14:13:11.971Z,25.36
2022-09-12T14:15:38.409Z,25.23
2022-09-12T14:18:08.670Z,25.36
2022-09-12T14:20:39.375Z,25.21
2022-09-12T14:23:27.436Z,25.13
2022-09-12T14:25:56.280Z,24.90
2022-09-12T14:28:23.852Z,25.14
2022-09-12T14:31:06.685Z,24.75
2022-09-12T14:33:46.668Z,24.90
2022-09-12T14:36:49.932Z,24.76
2022-09-12T14:39:22.441Z,24.66
2022-09-12T14:41:49.650Z,24.93
2022-09-12T14:44:24.383Z,25.08
2022-09-12T14:46:51.319Z,25.08
2022-09-12T14:49:24.004Z,25.01
2022-09-12T14:51:51.480Z,25.13
2022-09-12T14:54:27.497Z,25.04
2022-09-12T14:56:56.621Z,24.98
2022-09-12T14:59:35.496Z,25.01
2022-09-12T15:02:17.127Z,24.95
2022-09-12T15:04:46.258Z,25.04
2022-09-12T15:07:50.311Z,24.95
2022-09-12T15:10:25.209Z,24.86
2022-09-12T15:13:14.202Z,24.93
2022-09-12T15:15:43.076Z,24.69
2022-09-12T15:18:09.672Z,24.64
2022-09-12T15:20:37.733Z,24.83
2022-09-12T15:23:06.529Z,24.49
2022-09-12T15:25:33.170Z,24.74
2022-09-12T15:28:00.714Z,24.76
2022-09-12T15:30:27.111Z,24.52
2022-09-12T15:32:54.905Z,24.45
2022-09-12T15:35:33.081Z,24.51
2022-09-12T15:37:59.590Z,24.60
2022-09-12T15:40:26.559Z,24.53
2022-09-12T15:42:53.305Z,24.55
2022-09-12T15:45:24.875Z,24.56
2022-09-12T15:47:51.891Z,24.58
2022-09-12T15:50:18.435Z,24.33
2022-09-12T15:52:45.362Z,24.38
2022-09-12T15:55:26.250Z,24.21
2022-09-12T15:57:52.935Z,24.33
2022-09-12T16:00:20.295Z,24.01
2022-09-12T16:02:49.166Z,24.40
2022-09-12T16:05:19.683Z,24.26
2022-09-12T16:07:46.490Z,24.33
2022-09-12T16:10:18.186Z,24.24
2022-09-12T16:12:45.589Z,24.26
2022-09-12T16:15:15.315Z,24.07
2022-09-12T16:17:42.185Z,23.94
2022-09-12T16:20:09.383Z,23.76
2022-09-12T16:22:36.334Z,23.92
2022-09-12T16:25:04.177Z,23.84
2022-09-12T16:27:30.994Z,23.83
2022-09-12T16:29:57.731Z,23.77
2022-09-12T16:32:24.377Z,23.74
2022-09-12T16:34:50.891Z,23.69
2022-09-12T16:37:18.105Z,23.67
2022-09-12T16:39:45.004Z,23.54
2022-09-12T16:42:11.858Z,23.63
2022-09-12T16:44:38.387Z,23.73
2022-09-12T16:47:09.409Z,23.53
2022-09-12T16:49:35.978Z,23.47
2022-09-12T16:52:02.888Z,23.43
2022-09-12T16:54:29.485Z,23.24
2022-09-12T16:56:55.987Z,23.15
2022-09-12T16:59:22.539Z,23.13
2022-09-12T17:01:49.170Z,22.93
2022-09-12T17:04:15.787Z,22.86
2022-09-12T17:06:42.533Z,22.80
2022-09-12T17:09:11.110Z,22.78
2022-09-12T17:11:38.886Z,22.67
2022-09-12T17:14:07.559Z,22.58
2022-09-12T17:16:36.631Z,22.47
2022-09-12T17:19:03.915Z,22.33
2022-09-12T17:21:30.893Z,22.24
2022-09-12T17:23:57.394Z,22.18
2022-09-12T17:26:24.424Z,22.06
2022-09-12T17:28:51.022Z,22.05
2022-09-12T17:31:17.627Z,21.96
2022-09-12T17:33:44.382Z,21.94
2022-09-12T17:36:16.545Z,21.80
2022-09-12T17:38:45.171Z,21.73
2022-09-12T17:41:17.626Z,21.66
2022-09-12T17:43:46.307Z,21.58
2022-09-12T17:46:13.207Z,21.50
2022-09-12T17:48:39.838Z,21.46
2022-09-12T17:51:14.377Z,21.42
2022-09-12T17:53:42.092Z,21.35
2022-09-12T17:56:09.419Z,21.35
2022-09-12T17:58:36.447Z,21.28
2022-09-12T18:01:24.375Z,21.21
2022-09-12T18:03:54.855Z,21.17
2022-09-12T18:06:22.703Z,21.17
2022-09-12T18:08:49.266Z,21.06
2022-09-12T18:11:16.546Z,21.03
2022-09-12T18:13:43.093Z,20.97
2022-09-12T18:16:12.618Z,20.91
2022-09-12T18:18:39.428Z,20.94
2022-09-12T18:21:07.023Z,20.89
2022-09-12T18:23:33.664Z,20.94
2022-09-12T18:26:08.289Z,20.86
2022-09-12T18:28:37.465Z,20.84
2022-09-12T18:31:05.047Z,20.78
2022-09-12T18:33:32.046Z,20.85
2022-09-12T18:36:04.269Z,20.72
2022-09-12T18:38:31.227Z,20.75
2022-09-12T18:41:05.044Z,20.64
2022-09-12T18:43:32.032Z,20.56
2022-09-12T18:46:09.639Z,20.54
2022-09-12T18:48:36.334Z,20.44
2022-09-12T18:51:07.993Z,20.34
2022-09-12T18:53:35.508Z,20.26
2022-09-12T18:56:04.051Z,20.21
2022-09-12T18:58:30.628Z,20.16
2022-09-12T19:00:58.093Z,20.15
2022-09-12T19:03:24.939Z,20.00
2022-09-12T19:05:51.563Z,19.97
2022-09-12T19:08:18.147Z,19.95
2022-09-12T19:10:44.709Z,19.86
2022-09-12T19:13:11.171Z,19.86
2022-09-12T19:15:40.259Z,19.78
2022-09-12T19:18:06.871Z,19.69
2022-09-12T19:20:35.810Z,19.70
2022-09-12T19:23:02.555Z,19.67
2022-09-12T19:25:29.353Z,19.63
2022-09-12T19:27:55.912Z,19.56
2022-09-12T19:30:22.454Z,19.51
2022-09-12T19:32:48.983Z,19.47
2022-09-12T19:35:15.735Z,19.44
2022-09-12T19:37:42.491Z,19.36
2022-09-12T19:40:09.398Z,19.37
2022-09-12T19:42:35.947Z,19.23
2022-09-12T19:45:02.475Z,19.33
2022-09-12T19:47:29.437Z,19.23
2022-09-12T19:49:57.189Z,19.21
2022-09-12T19:52:23.590Z,19.27
2022-09-12T19:54:50.160Z,19.26
2022-09-12T19:57:17.395Z,19.21
2022-09-12T19:59:45.095Z,19.18
2022-09-12T20:02:11.683Z,19.11
2022-09-12T20:04:39.095Z,19.11
2022-09-12T20:07:05.621Z,19.15
2022-09-12T20:09:32.095Z,19.10
2022-09-12T20:11:58.688Z,19.10
2022-09-12T20:14:25.186Z,19.06
2022-09-12T20:16:51.755Z,19.01
2022-09-12T20:19:18.293Z,19.06
2022-09-12T20:21:44.988Z,19.08
2022-09-12T20:24:13.586Z,19.05
2022-09-12T20:26:40.407Z,19.05
2022-09-12T20:29:08.037Z,18.95
2022-09-12T20:31:35.561Z,18.92
2022-09-12T20:34:02.501Z,18.84
2022-09-12T20:36:29.099Z,18.78
2022-09-12T20:38:57.957Z,18.76
2022-09-12T20:41:25.586Z,18.84
2022-09-12T20:43:53.392Z,18.70
2022-09-12T20:46:22.087Z,18.84
2022-09-12T20:48:49.474Z,18.83
2022-09-12T20:51:16.683Z,18.67
2022-09-12T20:53:43.240Z,18.69
2022-09-12T20:56:09.928Z,18.60
2022-09-12T20:58:40.411Z,18.57
2022-09-12T21:01:14.146Z,18.45
2022-09-12T21:03:43.903Z,18.41
2022-09-12T21:06:12.615Z,18.60
2022-09-12T21:08:39.550Z,18.57
2022-09-12T21:11:06.533Z,18.51
2022-09-12T21:13:35.908Z,18.47
2022-09-12T21:16:24.042Z,18.51
2022-09-12T21:18:59.613Z,18.39
2022-09-12T21:21:26.642Z,18.40
2022-09-12T21:23:55.318Z,18.47
2022-09-12T21:26:21.896Z,18.32
2022-09-12T21:28:48.592Z,18.41
2022-09-12T21:31:15.206Z,18.35
2022-09-12T21:33:42.049Z,18.30
2022-09-12T21:36:09.608Z,18.34
2022-09-12T21:38:36.338Z,18.25
2022-09-12T21:41:10.990Z,18.31
2022-09-12T21:43:38.277Z,18.24
2022-09-12T21:46:05.674Z,18.28
2022-09-12T21:48:33.014Z,18.28
2022-09-12T21:50:59.708Z,18.18
2022-09-12T21:53:26.637Z,18.23
2022-09-12T21:55:53.483Z,18.17
2022-09-12T21:58:20.156Z,18.22
2022-09-12T22:00:47.130Z,18.10
2022-09-12T22:03:14.420Z,18.12
2022-09-12T22:05:41.039Z,18.19
2022-09-12T22:08:08.027Z,18.12
2022-09-12T22:10:34.650Z,17.99
2022-09-12T22:13:01.602Z,18.03
2022-09-12T22:15:43.577Z,17.93
2022-09-12T22:18:10.709Z,18.15
2022-09-12T22:20:37.317Z,18.10
2022-09-12T22:23:24.765Z,18.13
2022-09-12T22:25:54.314Z,18.06
2022-09-12T22:28:21.268Z,18.02
2022-09-12T22:30:48.592Z,17.91
2022-09-12T22:33:15.412Z,17.92
2022-09-12T22:35:42.411Z,17.96
2022-09-12T22:38:09.183Z,17.99
2022-09-12T22:40:35.881Z,17.95
2022-09-12T22:43:02.548Z,17.96
2022-09-12T22:45:29.194Z,17.86
2022-09-12T22:47:59.189Z,17.86
2022-09-12T22:50:27.597Z,17.83
2022-09-12T22:52:54.175Z,17.78
2022-09-12T22:55:20.671Z,17.69
2022-09-12T22:57:47.243Z,17.75
2022-09-12T23:00:14.885Z,17.86
2022-09-12T23:02:41.632Z,17.85
2022-09-12T23:05:08.621Z,17.72
2022-09-12T23:07:35.246Z,17.76
2022-09-12T23:10:01.761Z,17.71
2022-09-12T23:12:28.302Z,17.69
2022-09-12T23:14:54.800Z,17.71
2022-09-12T23:17:21.368Z,17.64
2022-09-12T23:19:48.390Z,17.61
2022-09-12T23:22:14.974Z,17.59
2022-09-12T23:24:41.591Z,17.44
2022-09-12T23:27:08.307Z,17.34
2022-09-12T23:29:35.377Z,17.28
2022-09-12T23:32:03.301Z,17.25
2022-09-12T23:34:29.892Z,17.06
2022-09-12T23:36:56.644Z,17.14
2022-09-12T23:39:23.410Z,17.14
2022-09-12T23:41:50.381Z,16.87
2022-09-12T23:44:17.073Z,17.06
2022-09-12T23:46:43.617Z,16.96
2022-09-12T23:49:10.115Z,16.96
2022-09-12T23:51:36.769Z,16.96
2022-09-12T23:54:03.473Z,16.90
2022-09-12T23:56:30.057Z,17.02
2022-09-12T23:58:56.591Z,16.94
